createdAt,value
2022-08-17T00:00:52.436Z,97766.56
2022-08-17T00:11:06.470Z,97757.69
2022-08-17T00:21:26.441Z,97758.88
2022-08-17T00:31:59.489Z,97759.22
2022-08-17T00:42:27.595Z,97765.53
2022-08-17T00:53:04.485Z,97779.12
2022-08-17T01:03:27.486Z,97780.38
2022-08-17T01:13:42.497Z,97790.13
2022-08-17T01:23:55.526Z,97794.84
2022-08-17T01:34:11.529Z,97797.41
2022-08-17T01:44:25.511Z,97811.09
2022-08-17T01:54:40.521Z,97812.25
2022-08-17T02:04:53.550Z,97817.94
2022-08-17T02:15:06.565Z,97816.06
2022-08-17T02:25:21.538Z,97773.63
2022-08-17T02:35:34.615Z,97772.22
2022-08-17T02:45:47.563Z,97765.66
2022-08-17T02:56:00.592Z,97759.91
2022-08-17T03:06:15.565Z,97780.88
2022-08-17T03:16:28.609Z,97779.81
2022-08-17T03:26:41.606Z,97773.84
2022-08-17T03:36:54.636Z,97785.88
2022-08-17T03:47:25.627Z,97784.09
2022-08-17T03:57:38.613Z,97796.59
2022-08-17T04:07:51.640Z,97806.81
2022-08-17T04:18:11.656Z,97818.84
2022-08-17T04:28:25.668Z,97823.19
2022-08-17T04:38:40.701Z,97836.16
2022-08-17T04:48:55.683Z,97836.50
2022-08-17T04:59:29.693Z,97842.28
2022-08-17T05:09:42.688Z,97842.50
2022-08-17T05:20:01.700Z,97844.50
2022-08-17T05:30:14.736Z,97848.34
2022-08-17T05:40:32.948Z,97852.16
2022-08-17T05:51:18.737Z,97859.13
2022-08-17T06:01:38.770Z,97868.84
2022-08-17T06:12:05.755Z,97868.50
2022-08-17T06:22:28.769Z,97863.66
2022-08-17T06:32:50.963Z,97873.87
2022-08-17T06:43:46.164Z,97889.03
2022-08-17T06:54:12.779Z,97878.59
2022-08-17T07:04:31.804Z,97895.84
2022-08-17T07:15:01.814Z,97897.25
2022-08-17T07:25:25.810Z,97899.47
2022-08-17T08:04:58.879Z,97922.59
2022-08-17T08:32:06.741Z,97946.72
2022-08-17T12:48:05.309Z,97910.56
2022-08-17T12:58:16.441Z,97908.25
2022-08-17T13:08:28.278Z,97899.41
2022-08-17T13:18:43.661Z,97891.88
2022-08-17T13:28:51.312Z,97897.94
2022-08-17T13:39:09.718Z,97887.88
2022-08-17T13:49:16.064Z,97885.84
2022-08-17T13:59:54.546Z,97877.19
2022-08-17T14:10:09.183Z,97884.03
2022-08-17T14:20:16.462Z,97884.69
2022-08-17T14:30:25.405Z,97888.56
2022-08-17T14:40:31.758Z,97885.00
2022-08-17T14:50:41.822Z,97898.06
2022-08-17T15:00:50.929Z,97889.44
2022-08-17T15:10:57.307Z,97879.50
2022-08-17T15:21:07.966Z,97885.81
2022-08-17T15:31:14.513Z,97881.41
2022-08-17T15:41:20.899Z,97883.94
2022-08-17T15:51:31.390Z,97875.28
2022-08-17T16:02:29.911Z,97872.00
2022-08-17T16:12:15.924Z,97865.81
2022-08-17T16:22:51.942Z,97873.50
2022-08-17T16:33:01.268Z,97863.19
2022-08-17T16:43:11.643Z,97871.28
2022-08-17T16:53:20.266Z,97874.25
2022-08-17T17:03:27.522Z,97873.94
2022-08-17T17:13:40.526Z,97883.44
2022-08-17T17:23:56.849Z,97881.63
2022-08-17T17:34:05.740Z,97883.91
2022-08-17T17:44:18.021Z,97888.34
2022-08-17T17:54:48.210Z,97892.41
2022-08-17T18:05:02.406Z,97901.38
2022-08-17T18:15:33.674Z,97911.94
2022-08-17T18:25:55.058Z,97915.72
2022-08-17T18:36:01.690Z,97910.47
2022-08-17T18:46:28.341Z,97906.19
2022-08-17T18:56:38.135Z,97913.56
2022-08-17T19:06:44.722Z,97924.88
2022-08-17T19:17:03.451Z,97939.03
2022-08-17T19:27:26.910Z,97952.94
2022-08-17T19:37:58.341Z,97951.59
2022-08-17T19:48:08.396Z,97955.09
2022-08-17T19:58:45.114Z,97960.53
2022-08-17T20:09:15.194Z,97954.75
2022-08-17T20:19:48.653Z,97942.13
2022-08-17T20:30:11.586Z,97948.28
2022-08-17T20:40:29.443Z,97947.62
2022-08-17T20:50:44.639Z,97939.94
2022-08-17T21:01:01.222Z,97949.88
2022-08-17T21:12:00.015Z,97926.66
2022-08-17T21:22:32.956Z,97941.84
2022-08-17T21:32:42.153Z,97938.47
2022-08-17T21:42:51.706Z,97934.47
2022-08-17T21:52:58.694Z,97930.78
2022-08-17T22:03:06.836Z,97923.50
2022-08-17T22:13:19.767Z,97922.84
2022-08-17T22:24:05.841Z,97919.00
2022-08-17T22:34:15.400Z,97899.31
2022-08-17T22:44:33.350Z,97886.41
2022-08-17T22:54:58.369Z,97883.25
2022-08-17T23:05:18.101Z,97902.22
2022-08-17T23:15:27.497Z,97929.56
2022-08-17T23:25:35.610Z,97944.91
2022-08-17T23:35:41.940Z,97944.69
2022-08-17T23:45:48.529Z,97946.59
2022-08-17T23:56:04.575Z,97943.66
